Time;durP1;ratioP1;P1;durP2;ratioP2;P2;SDS_P1;SDS_P2;PMS_P1;PMS_P2;Temp;Humidity;BMP_temperature;BMP_pressure;BME280_temperature;BME280_humidity;BME280_pressure;Samples;Min_cycle;Max_cycle;Signal;HPM_P1;HPM_P2
2021/11/03 00:00:41;;;;;;;6.00;3.70;;;;;;;7.97;100.00;96451.91;5078110;28;20048;-81
2021/11/03 00:03:09;;;;;;;5.75;3.60;;;;;;;7.90;100.00;96465.09;5078532;28;20052;-81
2021/11/03 00:05:45;;;;;;;4.93;3.50;;;;;;;7.92;100.00;96466.34;5077816;28;20117;-82
2021/11/03 00:08:19;;;;;;;5.35;3.92;;;;;;;7.90;100.00;96460.50;5096968;28;20137;-81
2021/11/03 00:10:48;;;;;;;5.07;3.90;;;;;;;7.88;100.00;96464.63;5096604;28;20446;-81
2021/11/03 00:13:17;;;;;;;5.28;3.70;;;;;;;7.89;100.00;96456.25;5077957;28;20123;-82
2021/11/03 00:15:43;;;;;;;4.90;4.00;;;;;;;7.66;100.00;96452.25;5096833;28;20087;-81
2021/11/03 00:18:10;;;;;;;4.45;3.70;;;;;;;7.78;100.00;96455.03;5098213;28;20105;-80
2021/11/03 00:20:37;;;;;;;6.13;4.38;;;;;;;7.77;100.00;96448.03;5097844;28;20048;-81
2021/11/03 00:23:05;;;;;;;6.85;4.60;;;;;;;7.64;100.00;96469.84;5078281;28;20333;-81
2021/11/03 00:25:32;;;;;;;6.38;4.72;;;;;;;7.82;100.00;96450.53;5095699;28;20052;-81
2021/11/03 00:27:59;;;;;;;5.80;4.50;;;;;;;7.88;100.00;96451.16;5096605;28;20547;-80
2021/11/03 00:30:25;;;;;;;5.80;4.70;;;;;;;7.81;100.00;96440.09;5096184;28;20056;-81
2021/11/03 00:32:52;;;;;;;7.35;4.55;;;;;;;7.87;100.00;96455.75;5096247;28;20488;-81
2021/11/03 00:35:18;;;;;;;5.97;4.57;;;;;;;7.75;100.00;96452.19;5096909;28;20393;-82
2021/11/03 00:37:45;;;;;;;6.28;4.30;;;;;;;7.81;100.00;96458.97;5080820;28;20083;-82
2021/11/03 00:40:12;;;;;;;5.80;4.18;;;;;;;8.02;100.00;96459.81;5097682;28;20052;-82
2021/11/03 00:42:38;;;;;;;5.75;4.57;;;;;;;7.97;100.00;96460.78;5079013;28;20048;-82
2021/11/03 00:45:07;;;;;;;7.82;4.68;;;;;;;8.10;100.00;96459.72;5098134;28;20059;-82
2021/11/03 00:47:34;;;;;;;5.70;4.35;;;;;;;8.04;100.00;96449.47;5097228;28;20681;-81
2021/11/03 00:50:00;;;;;;;6.90;4.28;;;;;;;7.95;100.00;96448.72;5097627;28;20056;-82
2021/11/03 00:52:27;;;;;;;6.15;4.75;;;;;;;7.93;100.00;96467.13;5096096;28;20051;-82
2021/11/03 00:54:54;;;;;;;6.75;5.28;;;;;;;7.83;100.00;96467.50;5080344;28;20105;-82
2021/11/03 00:57:20;;;;;;;6.15;4.72;;;;;;;7.88;100.00;96456.53;5099830;28;20051;-82
2021/11/03 00:59:49;;;;;;;6.05;4.60;;;;;;;7.92;100.00;96457.50;5098192;28;20105;-81
2021/11/03 01:02:15;;;;;;;6.97;4.95;;;;;;;7.87;100.00;96444.97;5098566;28;20298;-81
2021/11/03 01:04:42;;;;;;;7.43;5.50;;;;;;;7.50;100.00;96441.22;5080315;28;20055;-81
2021/11/03 01:07:09;;;;;;;6.88;5.50;;;;;;;7.36;100.00;96451.41;5099436;28;20056;-82
2021/11/03 01:09:38;;;;;;;8.07;5.57;;;;;;;7.17;100.00;96455.59;5081519;28;20048;-80
2021/11/03 01:12:05;;;;;;;8.13;5.90;;;;;;;7.27;100.00;96466.81;5099208;28;20056;-81
2021/11/03 01:14:32;;;;;;;9.10;6.05;;;;;;;7.50;100.00;96454.69;5097360;28;20065;-80
2021/11/03 01:16:58;;;;;;;9.68;6.00;;;;;;;7.58;100.00;96461.16;5077658;28;20051;-80
2021/11/03 01:19:25;;;;;;;7.30;5.75;;;;;;;7.66;100.00;96454.13;5077585;28;20048;-81
2021/11/03 01:21:52;;;;;;;8.63;5.32;;;;;;;7.76;100.00;96459.16;5076662;28;20097;-80
2021/11/03 01:24:18;;;;;;;8.48;4.88;;;;;;;7.89;100.00;96467.00;5077471;28;20134;-81
2021/11/03 01:26:45;;;;;;;6.40;4.95;;;;;;;7.94;100.00;96471.41;5080257;28;20150;-80
2021/11/03 01:29:11;;;;;;;7.40;4.93;;;;;;;8.01;100.00;96479.78;5097510;28;20365;-83
2021/11/03 01:31:38;;;;;;;7.05;4.55;;;;;;;8.12;100.00;96487.16;5098243;28;20051;-82
2021/11/03 01:34:05;;;;;;;7.65;4.70;;;;;;;8.25;100.00;96463.78;5099854;28;20047;-83
2021/11/03 01:36:32;;;;;;;5.60;4.40;;;;;;;8.03;100.00;96470.25;5100813;28;20048;-83
2021/11/03 01:38:58;;;;;;;7.63;4.28;;;;;;;8.23;100.00;96474.09;5101548;28;20048;-82
2021/11/03 01:41:26;;;;;;;5.55;4.10;;;;;;;8.30;100.00;96466.28;5080778;28;20138;-83
2021/11/03 01:44:14;;;;;;;5.10;4.15;;;;;;;8.25;100.00;96466.47;5098382;28;20116;-82
2021/11/03 01:46:47;;;;;;;5.05;4.03;;;;;;;8.20;100.00;96473.94;5096533;28;20101;-81
2021/11/03 01:49:26;;;;;;;5.00;3.90;;;;;;;8.33;100.00;96468.34;5088287;28;20049;-80
2021/11/03 01:52:04;;;;;;;5.93;4.38;;;;;;;8.41;100.00;96472.88;5078370;28;20142;-80
2021/11/03 01:54:43;;;;;;;5.35;3.90;;;;;;;8.36;100.00;96462.28;5078877;28;20048;-81
2021/11/03 01:57:15;;;;;;;6.53;4.43;;;;;;;8.25;100.00;96471.84;5097091;28;20044;-81
2021/11/03 01:59:45;;;;;;;5.95;4.28;;;;;;;8.37;100.00;96465.75;5096571;28;20048;-83
2021/11/03 02:02:15;;;;;;;4.63;3.65;;;;;;;8.43;100.00;96454.47;5093820;22;20048;-81
2021/11/03 02:04:43;;;;;;;5.20;3.63;;;;;;;8.46;100.00;96458.41;5072280;28;20507;-81
2021/11/03 02:07:17;;;;;;;5.07;3.85;;;;;;;8.45;100.00;96449.53;5072497;28;20213;-81
2021/11/03 02:09:44;;;;;;;4.82;3.67;;;;;;;8.59;100.00;96446.56;5054462;28;20052;-82
2021/11/03 02:12:26;;;;;;;4.85;3.83;;;;;;;8.69;100.00;96449.63;5054945;28;20056;-82
2021/11/03 02:14:54;;;;;;;6.13;3.88;;;;;;;8.68;100.00;96453.44;5108846;22;20062;-82
2021/11/03 02:17:22;;;;;;;5.25;3.88;;;;;;;8.70;100.00;96443.09;5137366;27;20112;-80
2021/11/03 02:19:51;;;;;;;5.10;3.60;;;;;;;8.72;100.00;96426.59;5137881;27;20055;-83
2021/11/03 02:22:29;;;;;;;4.95;3.83;;;;;;;8.74;100.00;96437.84;5137032;27;20065;-83
2021/11/03 02:25:03;;;;;;;4.43;3.50;;;;;;;8.83;100.00;96429.69;5119729;27;20047;-82
2021/11/03 02:27:34;;;;;;;5.13;3.40;;;;;;;8.73;100.00;96433.56;5121052;27;20532;-83
2021/11/03 02:30:01;;;;;;;4.45;3.60;;;;;;;8.57;100.00;96421.81;5119644;27;20096;-82
2021/11/03 02:32:30;;;;;;;4.20;3.60;;;;;;;8.91;100.00;96420.69;5117906;27;20043;-79
2021/11/03 02:34:57;;;;;;;4.28;3.38;;;;;;;9.15;100.00;96426.16;5139511;27;20119;-84
2021/11/03 02:37:27;;;;;;;5.38;3.58;;;;;;;9.16;100.00;96423.09;5139912;27;20427;-81
2021/11/03 02:40:03;;;;;;;6.70;3.80;;;;;;;9.15;100.00;96423.44;5121156;27;20055;-82
2021/11/03 02:42:33;;;;;;;4.80;3.67;;;;;;;9.16;100.00;96423.09;5139438;27;20046;-83
2021/11/03 02:45:06;;;;;;;4.25;3.25;;;;;;;9.18;100.00;96430.88;5139455;27;20054;-82
2021/11/03 02:47:32;;;;;;;4.97;3.53;;;;;;;9.16;100.00;96422.34;5120730;27;20514;-82
2021/11/03 02:49:59;;;;;;;4.60;3.58;;;;;;;9.13;100.00;96429.19;5137256;27;20040;-83
2021/11/03 02:52:26;;;;;;;6.72;3.63;;;;;;;8.90;100.00;96419.13;5139170;27;20043;-81
2021/11/03 02:54:53;;;;;;;7.22;3.42;;;;;;;8.91;100.00;96429.56;5121078;27;20115;-83
2021/11/03 02:57:20;;;;;;;4.68;3.38;;;;;;;8.96;100.00;96426.66;5120449;27;20071;-82
2021/11/03 02:59:50;;;;;;;5.10;3.45;;;;;;;8.92;100.00;96414.97;5119676;27;20096;-83
2021/11/03 03:02:17;;;;;;;5.97;3.42;;;;;;;8.85;100.00;96416.63;5116142;28;20096;-84
2021/11/03 03:04:48;;;;;;;4.18;3.22;;;;;;;8.70;100.00;96424.22;5135318;27;20051;-83
2021/11/03 03:07:16;;;;;;;4.65;3.20;;;;;;;8.75;100.00;96418.63;5118272;27;20070;-83
2021/11/03 03:09:43;;;;;;;3.65;2.88;;;;;;;8.61;100.00;96420.84;5114682;27;20592;-83
2021/11/03 03:12:17;;;;;;;3.35;2.88;;;;;;;8.50;100.00;96416.97;5132900;27;20352;-84
2021/11/03 03:14:47;;;;;;;4.88;3.15;;;;;;;8.42;100.00;96430.50;5129975;27;20062;-83
2021/11/03 03:17:15;;;;;;;4.68;2.90;;;;;;;8.37;100.00;96431.50;5130905;27;20096;-83
2021/11/03 03:19:42;;;;;;;2.88;2.50;;;;;;;8.36;100.00;96438.00;5130137;27;20070;-82
2021/11/03 03:22:11;;;;;;;3.15;2.78;;;;;;;8.25;100.00;96444.09;5112769;27;20111;-83
2021/11/03 03:24:38;;;;;;;5.13;3.40;;;;;;;7.82;100.00;96447.84;5118848;27;20264;-84
2021/11/03 03:27:05;;;;;;;3.92;3.22;;;;;;;7.76;100.00;96438.41;5114276;27;20047;-83
2021/11/03 03:29:32;;;;;;;5.28;3.00;;;;;;;7.59;100.00;96437.72;5129085;27;20100;-83
2021/11/03 03:31:59;;;;;;;4.20;3.10;;;;;;;7.55;100.00;96442.94;5110164;28;20094;-80
2021/11/03 03:34:28;;;;;;;4.85;3.08;;;;;;;7.51;100.00;96442.00;5109171;28;20057;-84
2021/11/03 03:36:56;;;;;;;3.55;2.78;;;;;;;7.29;100.00;96437.66;5128466;28;20051;-83
2021/11/03 03:39:24;;;;;;;4.05;3.00;;;;;;;7.40;100.00;96446.97;5109881;28;20317;-84
2021/11/03 03:42:13;;;;;;;4.78;3.03;;;;;;;7.20;100.00;96433.44;5128543;28;20087;-81
2021/11/03 03:44:40;;;;;;;3.90;2.92;;;;;;;7.26;100.00;96441.00;5127447;28;20100;-84
2021/11/03 03:47:07;;;;;;;4.05;3.13;;;;;;;7.24;100.00;96443.22;5126225;28;20086;-84
2021/11/03 03:49:34;;;;;;;5.13;3.03;;;;;;;7.19;100.00;96432.66;5114173;28;20101;-80
2021/11/03 03:52:02;;;;;;;4.28;2.97;;;;;;;7.19;100.00;96432.66;5124648;28;20269;-83
2021/11/03 03:54:29;;;;;;;6.53;3.30;;;;;;;7.19;100.00;96435.34;5103113;28;20125;-84
2021/11/03 03:56:56;;;;;;;4.93;3.22;;;;;;;7.19;100.00;96432.66;5118924;28;20047;-84
2021/11/03 03:59:23;;;;;;;4.43;3.08;;;;;;;7.07;100.00;96435.19;5109680;28;20253;-83
2021/11/03 04:01:50;;;;;;;5.15;2.88;;;;;;;6.95;100.00;96437.78;5109528;28;20149;-83
2021/11/03 04:04:18;;;;;;;4.78;3.17;;;;;;;7.00;100.00;96439.50;5129160;28;20089;-82
2021/11/03 04:06:45;;;;;;;4.07;2.78;;;;;;;6.98;100.00;96450.59;5129973;28;20111;-83
2021/11/03 04:09:11;;;;;;;3.78;2.72;;;;;;;6.93;100.00;96444.59;5113450;28;20047;-84
2021/11/03 04:11:39;;;;;;;4.68;2.85;;;;;;;6.94;100.00;96444.28;5133548;28;20047;-82
2021/11/03 04:14:05;;;;;;;5.38;2.80;;;;;;;6.87;100.00;96446.66;5133898;28;20047;-83
2021/11/03 04:16:32;;;;;;;3.85;2.67;;;;;;;6.98;100.00;96439.03;5131333;28;20323;-84
2021/11/03 04:18:58;;;;;;;3.30;2.60;;;;;;;6.98;100.00;96434.44;5114355;28;20047;-84
2021/11/03 04:21:25;;;;;;;3.78;2.75;;;;;;;7.10;100.00;96442.63;5112492;28;20130;-80
2021/11/03 04:24:12;;;;;;;7.18;2.60;;;;;;;7.12;100.00;96436.94;5116085;28;20229;-84
2021/11/03 04:26:43;;;;;;;3.75;2.50;;;;;;;7.13;100.00;96443.88;5110703;28;20483;-83
2021/11/03 04:29:09;;;;;;;2.85;2.42;;;;;;;7.10;100.00;96445.31;5128950;28;20035;-82
2021/11/03 04:31:36;;;;;;;3.33;2.30;;;;;;;7.13;100.00;96450.06;5109816;28;20055;-83
2021/11/03 04:34:03;;;;;;;3.22;2.30;;;;;;;7.15;100.00;96457.84;5127261;28;20467;-83
2021/11/03 04:36:30;;;;;;;4.15;2.55;;;;;;;7.22;100.00;96453.53;5129686;28;20074;-82
2021/11/03 04:38:59;;;;;;;3.30;2.30;;;;;;;7.19;100.00;96464.94;5130291;27;20243;-84
2021/11/03 04:41:26;;;;;;;5.40;2.30;;;;;;;7.27;100.00;96474.88;5132297;27;20100;-85
2021/11/03 04:43:53;;;;;;;3.90;2.35;;;;;;;7.20;100.00;96481.88;5131731;27;20116;-85
2021/11/03 04:46:19;;;;;;;4.28;2.85;;;;;;;7.28;100.00;96476.44;5131965;27;20055;-83
2021/11/03 04:48:47;;;;;;;3.05;2.40;;;;;;;7.26;100.00;96473.28;5131982;27;20043;-85
2021/11/03 04:51:14;;;;;;;4.65;2.53;;;;;;;7.29;100.00;96480.75;5132347;27;20051;-84
2021/11/03 04:53:41;;;;;;;4.53;2.20;;;;;;;7.30;100.00;96476.91;5113068;27;20055;-85
2021/11/03 04:56:09;;;;;;;3.33;2.50;;;;;;;7.39;100.00;96483.06;5134026;27;20047;-84
2021/11/03 04:58:35;;;;;;;2.95;2.30;;;;;;;7.33;100.00;96481.66;5115984;27;20111;-84
2021/11/03 05:01:02;;;;;;;3.75;2.35;;;;;;;7.34;100.00;96487.84;5114097;27;20168;-84
2021/11/03 05:03:30;;;;;;;4.10;2.75;;;;;;;7.36;100.00;96485.59;5133975;27;20133;-84
2021/11/03 05:05:58;;;;;;;4.30;2.67;;;;;;;7.28;100.00;96481.84;5117066;27;20134;-84
2021/11/03 05:08:25;;;;;;;3.50;2.63;;;;;;;7.35;100.00;96479.47;5133061;27;20051;-84
2021/11/03 05:10:52;;;;;;;3.42;2.70;;;;;;;7.22;100.00;96469.69;5132397;27;20181;-84
2021/11/03 05:13:18;;;;;;;3.38;2.30;;;;;;;7.34;100.00;96477.06;5116060;27;20058;-83
2021/11/03 05:15:51;;;;;;;3.47;2.30;;;;;;;7.26;100.00;96457.16;5116469;27;20058;-84
2021/11/03 05:18:18;;;;;;;4.30;2.30;;;;;;;7.34;100.00;96464.41;5117005;27;20103;-83
2021/11/03 05:20:44;;;;;;;2.95;2.50;;;;;;;7.35;100.00;96468.69;5133169;27;20062;-82
2021/11/03 05:23:11;;;;;;;3.22;2.30;;;;;;;7.34;100.00;96466.31;5115039;27;20181;-83
2021/11/03 05:25:38;;;;;;;2.90;2.22;;;;;;;7.40;100.00;96456.94;5114701;27;20043;-83
2021/11/03 05:28:04;;;;;;;3.33;2.40;;;;;;;7.41;100.00;96463.91;5134248;27;20090;-81
2021/11/03 05:30:31;;;;;;;2.33;1.83;;;;;;;7.36;100.00;96464.88;5135222;27;20043;-81
2021/11/03 05:32:58;;;;;;;2.47;1.85;;;;;;;7.44;100.00;96455.97;5114221;27;20139;-81
2021/11/03 05:35:25;;;;;;;3.10;2.15;;;;;;;7.46;100.00;96444.88;5131139;27;20144;-84
2021/11/03 05:37:53;;;;;;;2.47;1.90;;;;;;;7.37;100.00;96438.75;5130346;27;20504;-84
2021/11/03 05:40:23;;;;;;;3.90;2.38;;;;;;;7.41;100.00;96445.06;5111974;27;20051;-84
2021/11/03 05:42:49;;;;;;;4.40;2.05;;;;;;;7.34;100.00;96450.94;5131234;27;20076;-84
2021/11/03 05:45:16;;;;;;;2.38;2.10;;;;;;;7.36;100.00;96459.47;5110483;27;20474;-85
2021/11/03 05:47:43;;;;;;;3.55;2.15;;;;;;;7.36;100.00;96454.09;5130540;27;20104;-83
2021/11/03 05:50:14;;;;;;;4.22;2.22;;;;;;;7.32;100.00;96466.63;5132372;27;20104;-84
2021/11/03 05:52:41;;;;;;;3.80;2.30;;;;;;;7.39;100.00;96458.06;5129422;27;20266;-84
2021/11/03 05:55:08;;;;;;;5.38;2.17;;;;;;;7.39;100.00;96469.63;5129797;27;20078;-84
2021/11/03 05:57:36;;;;;;;3.15;2.33;;;;;;;7.41;100.00;96470.06;5112248;27;20043;-84
2021/11/03 06:00:27;;;;;;;4.47;2.20;;;;;;;7.39;100.00;96464.22;5130495;27;20193;-83
2021/11/03 06:02:53;;;;;;;3.47;2.20;;;;;;;7.39;100.00;96469.63;5112398;27;20502;-84
2021/11/03 06:05:21;;;;;;;4.22;2.20;;;;;;;7.46;100.00;96475.28;5111159;27;20054;-85
2021/11/03 06:08:04;;;;;;;5.47;2.78;;;;;;;7.39;100.00;96479.59;5111567;27;20140;-84
2021/11/03 06:10:38;;;;;;;3.38;2.22;;;;;;;7.58;100.00;96479.19;5130497;27;20085;-85
2021/11/03 06:13:05;;;;;;;3.90;2.67;;;;;;;7.54;100.00;96476.34;5110430;27;20039;-84
2021/11/03 06:15:35;;;;;;;3.58;2.42;;;;;;;7.59;100.00;96478.09;5130279;27;20059;-85
2021/11/03 06:18:03;;;;;;;3.83;2.30;;;;;;;7.44;100.00;96493.66;5111009;27;20143;-84
2021/11/03 06:20:30;;;;;;;3.88;2.50;;;;;;;7.44;100.00;96476.72;5111410;27;20491;-84
2021/11/03 06:22:57;;;;;;;6.22;2.50;;;;;;;7.44;100.00;96472.13;5128770;27;20082;-85
2021/11/03 06:25:25;;;;;;;6.93;2.70;;;;;;;7.57;100.00;96488.38;5129199;27;20431;-84
2021/11/03 06:27:53;;;;;;;3.35;2.42;;;;;;;7.71;100.00;96479.00;5110999;27;20134;-85
2021/11/03 06:30:28;;;;;;;5.55;2.50;;;;;;;7.59;100.00;96486.19;5110436;27;20043;-85
2021/11/03 06:32:55;;;;;;;4.43;2.92;;;;;;;7.58;100.00;96492.66;5115145;27;20043;-85
2021/11/03 06:35:23;;;;;;;5.32;3.10;;;;;;;7.65;100.00;96503.72;5129002;27;20055;-85
2021/11/03 06:37:50;;;;;;;6.53;3.30;;;;;;;7.60;100.00;96495.81;5110418;27;20059;-85
2021/11/03 06:40:20;;;;;;;5.65;3.15;;;;;;;7.72;100.00;96493.22;5110406;27;20207;-84
2021/11/03 06:42:47;;;;;;;7.07;3.13;;;;;;;7.80;100.00;96498.59;5110929;27;20065;-84
2021/11/03 06:45:15;;;;;;;7.13;3.20;;;;;;;7.70;100.00;96507.03;5110342;27;20475;-85
2021/11/03 06:47:42;;;;;;;5.97;3.30;;;;;;;7.85;100.00;96495.69;5129317;27;20508;-85
2021/11/03 06:50:15;;;;;;;6.47;3.30;;;;;;;7.91;100.00;96513.28;5112027;27;20136;-84
2021/11/03 06:52:42;;;;;;;7.13;3.25;;;;;;;7.88;100.00;96513.91;5109584;27;20134;-85
2021/11/03 06:55:09;;;;;;;6.05;3.65;;;;;;;7.92;100.00;96508.69;5128816;27;20059;-83
2021/11/03 06:57:36;;;;;;;6.65;2.95;;;;;;;7.99;100.00;96501.66;5128527;27;20043;-85
2021/11/03 07:00:06;;;;;;;5.38;3.28;;;;;;;8.06;100.00;96503.84;5127861;27;20043;-85
2021/11/03 07:02:33;;;;;;;5.25;3.25;;;;;;;7.98;100.00;96493.88;5109093;27;20116;-85
2021/11/03 07:04:59;;;;;;;8.40;3.40;;;;;;;8.24;100.00;96504.50;5107582;27;20142;-85
2021/11/03 07:07:26;;;;;;;5.03;3.30;;;;;;;8.29;100.00;96501.66;5109910;27;20043;-85
2021/11/03 07:09:53;;;;;;;4.15;2.67;;;;;;;8.28;100.00;96508.19;5109354;27;20565;-84
2021/11/03 07:12:19;;;;;;;5.57;3.30;;;;;;;8.38;100.00;96497.81;5109431;27;20094;-84
2021/11/03 07:14:46;;;;;;;6.13;3.30;;;;;;;8.50;100.00;96486.28;5127883;27;20449;-84
2021/11/03 07:17:12;;;;;;;7.28;3.03;;;;;;;8.62;100.00;96494.47;5111328;27;20050;-84
2021/11/03 07:19:40;;;;;;;6.68;3.47;;;;;;;8.53;100.00;96496.41;5110158;27;20440;-84
2021/11/03 07:22:08;;;;;;;5.10;3.00;;;;;;;8.50;100.00;96499.75;5109602;28;20529;-84
2021/11/03 07:24:36;;;;;;;5.68;3.40;;;;;;;8.61;100.00;96490.97;5110257;27;20547;-83
2021/11/03 07:27:03;;;;;;;6.55;3.58;;;;;;;8.56;100.00;96496.56;5128367;27;20131;-85
2021/11/03 07:29:29;;;;;;;6.72;3.30;;;;;;;8.49;100.00;96485.47;5129601;27;20048;-84
2021/11/03 07:31:56;;;;;;;8.80;3.30;;;;;;;8.68;100.00;96485.81;5109028;28;20134;-82
2021/11/03 07:34:22;;;;;;;5.22;2.92;;;;;;;8.86;100.00;96491.06;5109182;28;20129;-85
2021/11/03 07:36:49;;;;;;;5.07;2.72;;;;;;;8.84;100.00;96493.31;5128380;28;20459;-84
2021/11/03 07:39:16;;;;;;;5.28;2.80;;;;;;;8.96;100.00;96487.94;5129290;28;20103;-84
2021/11/03 07:41:43;;;;;;;4.32;2.53;;;;;;;8.98;100.00;96501.91;5109518;28;20306;-85
2021/11/03 07:44:10;;;;;;;4.70;2.45;;;;;;;9.19;100.00;96497.25;5110307;28;20112;-84
2021/11/03 07:46:38;;;;;;;4.07;2.60;;;;;;;9.27;100.00;96494.47;5127749;28;20103;-84
2021/11/03 07:49:04;;;;;;;6.97;2.50;;;;;;;9.35;100.00;96485.47;5110638;28;20047;-85
2021/11/03 07:51:32;;;;;;;5.05;2.25;;;;;;;9.59;100.00;96503.66;5127992;28;20031;-84
2021/11/03 07:53:59;;;;;;;4.03;2.55;;;;;;;9.49;100.00;96493.28;5128854;28;20047;-83
2021/11/03 07:56:31;;;;;;;3.30;2.40;;;;;;;9.50;100.00;96497.53;5109596;28;20055;-84
2021/11/03 07:58:58;;;;;;;4.72;3.00;;;;;;;9.75;100.00;96499.16;5110038;28;20055;-84
2021/11/03 08:01:28;;;;;;;4.50;2.60;;;;;;;9.60;100.00;96472.03;5122834;22;20422;-81
2021/11/03 08:03:55;;;;;;;3.65;2.70;;;;;;;9.90;100.00;96476.06;5112846;28;20074;-80
2021/11/03 08:06:22;;;;;;;4.95;2.95;;;;;;;10.07;100.00;96491.25;5129429;28;20082;-84
2021/11/03 08:08:57;;;;;;;4.38;2.50;;;;;;;10.49;100.00;96495.28;5112692;28;20292;-81
2021/11/03 08:11:27;;;;;;;3.72;2.45;;;;;;;11.17;100.00;96494.13;5112394;28;20438;-81
2021/11/03 08:13:54;;;;;;;4.38;2.85;;;;;;;12.20;100.00;96489.41;5116173;27;20473;-82
2021/11/03 08:16:21;;;;;;;11.25;5.40;;;;;;;12.94;100.00;96477.44;5135579;27;20463;-82
2021/11/03 08:18:48;;;;;;;8.82;4.18;;;;;;;13.67;100.00;96476.50;5135313;27;20051;-80
2021/11/03 08:21:15;;;;;;;6.32;3.90;;;;;;;14.48;100.00;96472.31;5116585;27;20047;-80
2021/11/03 08:23:42;;;;;;;3.28;2.58;;;;;;;14.30;89.46;96457.63;5134900;27;20059;-83
2021/11/03 08:26:09;;;;;;;3.47;2.10;;;;;;;12.92;100.00;96465.34;5116785;27;20055;-81
2021/11/03 08:28:36;;;;;;;5.85;2.60;;;;;;;13.19;100.00;96467.06;5117052;27;20057;-81
2021/11/03 08:31:03;;;;;;;6.75;2.63;;;;;;;13.92;100.00;96460.56;5116763;27;20043;-83
2021/11/03 08:33:37;;;;;;;3.75;2.30;;;;;;;14.69;91.49;96455.47;5134991;27;20493;-81
2021/11/03 08:36:06;;;;;;;3.40;2.30;;;;;;;14.34;79.66;96453.88;5116484;27;20112;-82
2021/11/03 08:38:51;;;;;;;2.95;2.00;;;;;;;14.92;74.44;96456.94;5134946;27;20121;-83
2021/11/03 08:41:19;;;;;;;3.03;2.20;;;;;;;16.23;65.17;96457.44;5134833;27;20066;-86
2021/11/03 08:43:47;;;;;;;2.80;1.90;;;;;;;16.31;65.93;96469.97;5120941;27;20043;-83
2021/11/03 08:46:14;;;;;;;6.57;3.40;;;;;;;17.07;61.10;96474.31;5140609;27;20490;-83
2021/11/03 08:48:49;;;;;;;6.65;2.60;;;;;;;17.62;57.08;96463.97;5134765;27;20082;-80
2021/11/03 08:51:18;;;;;;;4.45;2.00;;;;;;;16.55;57.77;96463.91;5115732;27;20064;-82
2021/11/03 08:53:51;;;;;;;2.90;1.95;;;;;;;16.41;60.31;96469.28;5116823;27;20105;-81
2021/11/03 08:56:17;;;;;;;4.97;2.90;;;;;;;17.64;56.91;96467.09;5115984;27;20057;-83
2021/11/03 08:58:44;;;;;;;7.45;3.78;;;;;;;17.13;58.00;96461.84;5116714;27;20051;-83
2021/11/03 09:01:11;;;;;;;4.50;3.20;;;;;;;17.30;59.21;96458.38;5134679;27;20097;-82
2021/11/03 09:03:40;;;;;;;3.88;2.28;;;;;;;18.28;53.46;96462.41;5118556;27;20105;-81
2021/11/03 09:06:07;;;;;;;5.55;3.05;;;;;;;18.68;51.53;96464.69;5118572;27;20047;-81
2021/11/03 09:08:38;;;;;;;2.88;1.70;;;;;;;18.19;53.26;96455.75;5118084;27;20054;-84
2021/11/03 09:11:07;;;;;;;15.65;6.65;;;;;;;16.34;55.42;96430.97;5116936;27;20077;-86
2021/11/03 09:13:35;;;;;;;4.18;2.70;;;;;;;15.85;60.62;96466.88;5116935;27;20141;-83
2021/11/03 09:16:03;;;;;;;3.33;1.70;;;;;;;14.97;66.54;96429.38;5116361;27;20079;-84
2021/11/03 09:18:30;;;;;;;4.03;1.52;;;;;;;14.05;80.81;96426.56;5118140;27;20043;-81
2021/11/03 09:20:58;;;;;;;2.50;1.20;;;;;;;13.68;90.15;96476.13;5115311;27;20047;-83
2021/11/03 09:23:25;;;;;;;2.20;1.40;;;;;;;12.99;100.00;96452.69;5115942;27;20106;-82
2021/11/03 09:25:54;;;;;;;4.43;1.40;;;;;;;12.79;100.00;96428.63;5115034;27;20070;-81
2021/11/03 09:28:27;;;;;;;1.88;1.30;;;;;;;13.37;100.00;96424.69;5134145;27;20051;-82
2021/11/03 09:30:56;;;;;;;2.10;1.48;;;;;;;13.43;100.00;96434.13;5118092;27;20479;-84
2021/11/03 09:33:27;;;;;;;2.85;1.75;;;;;;;13.39;99.72;96424.34;5117147;27;20116;-83
2021/11/03 09:35:55;;;;;;;4.28;2.55;;;;;;;14.19;85.99;96445.84;5134935;27;20061;-82
2021/11/03 09:38:26;;;;;;;2.70;1.20;;;;;;;15.70;73.39;96435.19;5120131;27;20115;-85
2021/11/03 09:41:12;;;;;;;3.17;0.93;;;;;;;17.71;57.40;96447.91;5117611;27;20246;-81
2021/11/03 09:43:48;;;;;;;1.55;0.77;;;;;;;19.09;49.77;96439.50;5133055;27;20047;-83
2021/11/03 09:46:20;;;;;;;1.13;0.82;;;;;;;19.15;50.13;96448.88;5113623;27;20074;-80
2021/11/03 09:49:12;;;;;;;2.03;0.88;;;;;;;19.06;48.96;96443.03;5115036;27;20051;-80
2021/11/03 09:51:47;;;;;;;2.85;0.70;;;;;;;17.99;48.20;96430.72;5114134;27;20150;-83
2021/11/03 09:54:22;;;;;;;1.10;0.65;;;;;;;17.56;50.05;96438.13;5114804;27;20061;-80
2021/11/03 09:57:01;;;;;;;0.87;0.80;;;;;;;19.86;46.03;96419.03;5133066;27;20043;-85
2021/11/03 09:59:44;;;;;;;2.80;0.80;;;;;;;20.54;43.66;96424.72;5134857;27;20051;-85
2021/11/03 10:02:38;;;;;;;1.42;0.70;;;;;;;19.83;46.20;96430.81;5117753;27;20046;-81
2021/11/03 10:05:28;;;;;;;3.00;0.70;;;;;;;18.88;46.99;96420.38;5133626;27;20055;-79
2021/11/03 10:08:13;;;;;;;0.93;0.60;;;;;;;19.26;47.64;96414.69;5132325;27;20112;-81
2021/11/03 10:10:54;;;;;;;2.17;0.57;;;;;;;19.20;46.87;96412.78;5114567;27;20043;-82
2021/11/03 10:13:31;;;;;;;4.00;0.80;;;;;;;19.97;43.82;96400.50;5114653;27;20051;-82
2021/11/03 10:16:04;;;;;;;2.25;0.73;;;;;;;19.17;45.89;96400.66;5114289;27;20140;-81
2021/11/03 10:18:35;;;;;;;1.83;0.55;;;;;;;17.86;47.51;96404.94;5114840;27;20047;-80
2021/11/03 10:21:21;;;;;;;0.75;0.47;;;;;;;17.68;48.52;96398.66;5114417;27;20046;-83
2021/11/03 10:24:21;;;;;;;3.60;0.60;;;;;;;16.49;52.28;96403.34;5115887;27;20043;-80
2021/11/03 10:26:57;;;;;;;0.90;0.60;;;;;;;17.49;51.27;96394.31;5114261;27;20111;-81
2021/11/03 10:29:51;;;;;;;0.88;0.57;;;;;;;16.55;52.78;96401.06;5116294;27;20448;-81
2021/11/03 10:32:23;;;;;;;1.75;0.75;;;;;;;16.61;55.22;96399.53;5132980;27;20043;-81
2021/11/03 10:35:01;;;;;;;0.82;0.50;;;;;;;16.19;55.06;96400.06;5116509;27;20391;-81
2021/11/03 10:37:38;;;;;;;2.55;0.65;;;;;;;15.12;64.36;96407.72;5115071;27;20039;-82
2021/11/03 10:40:22;;;;;;;1.48;0.77;;;;;;;15.59;62.61;96413.25;5115428;27;20135;-82
2021/11/03 10:43:01;;;;;;;3.13;0.70;;;;;;;16.55;60.81;96412.78;5115366;27;20057;-84
2021/11/03 10:45:30;;;;;;;3.17;0.55;;;;;;;16.25;59.28;96405.94;5117241;27;20047;-83
2021/11/03 10:48:20;;;;;;;0.50;0.40;;;;;;;15.98;59.12;96411.63;5120009;27;20043;-83
2021/11/03 10:50:56;;;;;;;3.08;0.60;;;;;;;17.65;53.52;96402.97;5119286;27;20043;-83
2021/11/03 10:53:25;;;;;;;;;;;;;;;17.90;52.58;96398.28;5115945;27;20050;-80
2021/11/03 10:56:19;;;;;;;1.02;0.55;;;;;;;19.13;48.83;96402.63;5114971;27;19919;-81
2021/11/03 10:58:52;;;;;;;1.25;0.77;;;;;;;17.93;53.72;96394.75;5113887;27;20072;-81
2021/11/03 11:01:22;;;;;;;3.05;0.80;;;;;;;19.36;47.96;96384.88;5133436;27;20050;-79
2021/11/03 11:03:57;;;;;;;2.53;0.57;;;;;;;18.88;45.33;96366.31;5114205;27;20055;-79
2021/11/03 11:06:45;;;;;;;1.42;0.57;;;;;;;19.41;45.50;96357.78;5114198;27;20054;-80
2021/11/03 11:09:19;;;;;;;2.85;0.65;;;;;;;18.48;46.51;96350.41;5115154;27;20059;-79
2021/11/03 11:11:49;;;;;;;0.70;0.50;;;;;;;18.16;47.64;96360.66;5115357;27;20047;-82
2021/11/03 11:14:22;;;;;;;1.40;0.52;;;;;;;17.93;49.12;96361.09;5113778;27;20062;-79
2021/11/03 11:17:13;;;;;;;0.85;0.50;;;;;;;17.59;51.15;96355.25;5114243;27;20055;-83
2021/11/03 11:20:01;;;;;;;1.20;0.50;;;;;;;17.62;51.14;96346.28;5115143;27;20131;-79
2021/11/03 11:22:40;;;;;;;3.45;0.85;;;;;;;18.90;48.24;96344.75;5114074;27;20258;-79
2021/11/03 11:25:14;;;;;;;1.05;0.40;;;;;;;19.10;47.06;96351.28;5113859;27;20051;-79
2021/11/03 11:28:12;;;;;;;0.80;0.60;;;;;;;20.26;44.68;96308.38;5114248;27;20051;-81
2021/11/03 11:30:56;;;;;;;0.80;0.50;;;;;;;20.67;44.05;96297.28;5113622;27;20055;-83
2021/11/03 11:33:27;;;;;;;0.75;0.60;;;;;;;18.92;46.47;96312.22;5113579;28;20055;-83
2021/11/03 11:36:08;;;;;;;1.33;0.73;;;;;;;20.05;44.71;96296.81;5118172;28;20055;-84
2021/11/03 11:39:00;;;;;;;1.35;0.80;;;;;;;20.04;46.15;96328.22;5125773;28;20071;-82
2021/11/03 11:41:30;;;;;;;1.25;0.70;;;;;;;20.07;43.87;96319.16;5116497;28;20510;-85
2021/11/03 11:44:09;;;;;;;1.38;0.70;;;;;;;21.44;41.80;96331.19;5133474;28;20262;-82
2021/11/03 11:46:37;;;;;;;1.73;0.68;;;;;;;-141.50;100.00;63355.56;5133881;27;20062;-82
2021/11/03 11:49:19;;;;;;;2.25;0.80;;;;;;;-141.50;100.00;63355.56;5138114;27;20051;-85